Titania — 3EMI7 — position and weather

sailwx.info

Track history (hours):
 
Tides and Currents Weather Stations Pressure Air Temp Water Temp Dewpoint Dewpoint Depression Visibility Wind Speed Wind Dir Waves Ship Positions

Titania

Last reported at 2017-Nov-11 13:30 UTC. Time now 2017-Nov-20 09:58 UTC.
Position N 26°16' W 016°14'.
Warning: this ship's position is 8 days out of date.

Length 94 m; draft 6.2 m.

Type: Cargo ship. MMSI: 356032000.

Date/timePositionNaut miles runAvg speedWind from/ knotsBaromVisibWave heightAir tempDewpointWater temp
2017-Nov-11 13:30N 26°16' W 016°14'5 9.2
2017-Nov-11 12:57N 26°19' W 016°10'14 9.2
2017-Nov-11 11:27N 26°29' W 015°60'4 9.2
2017-Nov-11 11:00N 26°33' W 015°57'80 8.9
2017-Nov-11 02:01N 27°44' W 015°18'0 9.3
2017-Nov-11 02:00N 27°45' W 015°18'5 9.1
2017-Nov-11 01:30N 27°49' W 015°17'4 8.8
2017-Nov-11 01:00N 27°53' W 015°16'4 8.4
2017-Nov-11 00:30N 27°57' W 015°17'4 8.3
2017-Nov-11 00:00N 28°02' W 015°18'4 8.1
2017-Nov-10 23:30N 28°05' W 015°19'4 7.1
2017-Nov-10 23:00N 28°09' W 015°21'3 6.2
2017-Nov-10 22:30N 28°07' W 015°24'1 2.2
2017-Nov-10 21:59N 28°08' W 015°24'0 0.0
2017-Nov-10 21:27N 28°08' W 015°24'0 0.0
2017-Nov-10 20:54N 28°08' W 015°24'0 0.0
2017-Nov-10 20:14N 28°08' W 015°24'0 0.0
2017-Nov-10 19:52N 28°08' W 015°24'0 0.0
2017-Nov-10 19:29N 28°08' W 015°24'0 0.0
2017-Nov-10 18:50N 28°08' W 015°24'0 0.0
2017-Nov-10 18:26N 28°08' W 015°24'0 0.0
2017-Nov-10 17:50N 28°08' W 015°24'0 0.0
2017-Nov-10 17:24N 28°08' W 015°24'0 0.0
2017-Nov-10 16:57N 28°08' W 015°24'0 0.0
2017-Nov-10 16:03N 28°08' W 015°24'0 0.0
2017-Nov-10 16:00N 28°08' W 015°24'0 0.0
2017-Nov-10 15:29N 28°08' W 015°24'0 0.0
2017-Nov-10 14:53N 28°08' W 015°24'0 0.0
2017-Nov-10 14:25N 28°08' W 015°24'0 0.0
2017-Nov-10 13:58N 28°08' W 015°24'0 0.0
2017-Nov-10 13:16N 28°08' W 015°24'0 0.0
2017-Nov-10 13:00N 28°08' W 015°24'1 2.3
2017-Nov-10 12:30N 28°07' W 015°24'2 4.3
2017-Nov-10 12:00N 28°09' W 015°23'4 8.0
2017-Nov-10 11:30N 28°12' W 015°21'4 8.7
2017-Nov-10 11:00N 28°16' W 015°19'4 8.5
2017-Nov-10 10:30N 28°21' W 015°18'4 8.5
2017-Nov-10 10:00N 28°25' W 015°17'4 8.4
2017-Nov-10 09:30N 28°29' W 015°16'4 8.1
2017-Nov-10 09:00N 28°33' W 015°15'5 8.0
2017-Nov-10 08:21N 28°38' W 015°13'3 8.1
2017-Nov-10 07:59N 28°41' W 015°12'  
Track history (hours):
 
Tides and Currents Weather Stations Pressure Air Temp Water Temp Dewpoint Dewpoint Depression Visibility Wind Speed Wind Dir Waves Ship Positions

Titania

Last reported at 2017-Nov-11 13:30 UTC. Time now 2017-Nov-20 09:58 UTC.
Position N 26°16' W 016°14'.
Warning: this ship's position is 8 days out of date.

Length 94 m; draft 6.2 m.

Type: Cargo ship. MMSI: 356032000.

Date/timePositionNaut miles runAvg speedWind from/ knotsBaromVisibWave heightAir tempDewpointWater temp
2017-Nov-11 13:30N 26°16' W 016°14'5 9.2
2017-Nov-11 12:57N 26°19' W 016°10'14 9.2
2017-Nov-11 11:27N 26°29' W 015°60'4 9.2
2017-Nov-11 11:00N 26°33' W 015°57'80 8.9
2017-Nov-11 02:01N 27°44' W 015°18'0 9.3
2017-Nov-11 02:00N 27°45' W 015°18'5 9.1
2017-Nov-11 01:30N 27°49' W 015°17'4 8.8
2017-Nov-11 01:00N 27°53' W 015°16'4 8.4
2017-Nov-11 00:30N 27°57' W 015°17'4 8.3
2017-Nov-11 00:00N 28°02' W 015°18'4 8.1
2017-Nov-10 23:30N 28°05' W 015°19'4 7.1
2017-Nov-10 23:00N 28°09' W 015°21'3 6.2
2017-Nov-10 22:30N 28°07' W 015°24'1 2.2
2017-Nov-10 21:59N 28°08' W 015°24'0 0.0
2017-Nov-10 21:27N 28°08' W 015°24'0 0.0
2017-Nov-10 20:54N 28°08' W 015°24'0 0.0
2017-Nov-10 20:14N 28°08' W 015°24'0 0.0
2017-Nov-10 19:52N 28°08' W 015°24'0 0.0
2017-Nov-10 19:29N 28°08' W 015°24'0 0.0
2017-Nov-10 18:50N 28°08' W 015°24'0 0.0
2017-Nov-10 18:26N 28°08' W 015°24'0 0.0
2017-Nov-10 17:50N 28°08' W 015°24'0 0.0
2017-Nov-10 17:24N 28°08' W 015°24'0 0.0
2017-Nov-10 16:57N 28°08' W 015°24'0 0.0
2017-Nov-10 16:03N 28°08' W 015°24'0 0.0
2017-Nov-10 16:00N 28°08' W 015°24'0 0.0
2017-Nov-10 15:29N 28°08' W 015°24'0 0.0
2017-Nov-10 14:53N 28°08' W 015°24'0 0.0
2017-Nov-10 14:25N 28°08' W 015°24'0 0.0
2017-Nov-10 13:58N 28°08' W 015°24'0 0.0
2017-Nov-10 13:16N 28°08' W 015°24'0 0.0
2017-Nov-10 13:00N 28°08' W 015°24'1 2.3
2017-Nov-10 12:30N 28°07' W 015°24'2 4.3
2017-Nov-10 12:00N 28°09' W 015°23'4 8.0
2017-Nov-10 11:30N 28°12' W 015°21'4 8.7
2017-Nov-10 11:00N 28°16' W 015°19'4 8.5
2017-Nov-10 10:30N 28°21' W 015°18'4 8.5
2017-Nov-10 10:00N 28°25' W 015°17'4 8.4
2017-Nov-10 09:30N 28°29' W 015°16'4 8.1
2017-Nov-10 09:00N 28°33' W 015°15'5 8.0
2017-Nov-10 08:21N 28°38' W 015°13'3 8.1
2017-Nov-10 07:59N 28°41' W 015°12'  

Dump ship's entire track history